sensor_id;sensor_type;location;lat;lon;timestamp;temperature;humidity
1578;DHT22;57623;53.608;10.004;2022-09-17T00:02:44;12.70;99.90
1578;DHT22;57623;53.608;10.004;2022-09-17T00:05:48;12.80;99.90
1578;DHT22;57623;53.608;10.004;2022-09-17T00:08:57;12.80;99.90
1578;DHT22;57623;53.608;10.004;2022-09-17T00:15:38;12.70;99.90
1578;DHT22;57623;53.608;10.004;2022-09-17T00:18:56;12.80;99.90
1578;DHT22;57623;53.608;10.004;2022-09-17T00:22:07;12.70;99.90
1578;DHT22;57623;53.608;10.004;2022-09-17T00:25:23;12.80;99.90
1578;DHT22;57623;53.608;10.004;2022-09-17T00:28:24;12.80;99.90
1578;DHT22;57623;53.608;10.004;2022-09-17T00:31:35;12.70;99.90
1578;DHT22;57623;53.608;10.004;2022-09-17T00:34:50;12.70;99.90
1578;DHT22;57623;53.608;10.004;2022-09-17T00:38:15;12.70;99.90
1578;DHT22;57623;53.608;10.004;2022-09-17T00:41:17;12.80;99.90
1578;DHT22;57623;53.608;10.004;2022-09-17T00:44:54;12.70;99.90
1578;DHT22;57623;53.608;10.004;2022-09-17T00:48:02;12.70;99.90
1578;DHT22;57623;53.608;10.004;2022-09-17T00:54:27;12.70;99.90
1578;DHT22;57623;53.608;10.004;2022-09-17T00:57:34;12.70;99.90
1578;DHT22;57623;53.608;10.004;2022-09-17T01:00:43;12.60;99.90
1578;DHT22;57623;53.608;10.004;2022-09-17T01:10:42;12.70;99.90
1578;DHT22;57623;53.608;10.004;2022-09-17T01:14:20;12.60;99.90
1578;DHT22;57623;53.608;10.004;2022-09-17T01:17:41;12.60;99.90
1578;DHT22;57623;53.608;10.004;2022-09-17T01:24:48;12.50;99.90
1578;DHT22;57623;53.608;10.004;2022-09-17T01:31:52;12.50;99.90
1578;DHT22;57623;53.608;10.004;2022-09-17T01:35:07;12.40;99.90
1578;DHT22;57623;53.608;10.004;2022-09-17T01:38:12;12.40;99.90
1578;DHT22;57623;53.608;10.004;2022-09-17T01:41:28;12.50;99.90
1578;DHT22;57623;53.608;10.004;2022-09-17T01:44:23;12.50;99.90
1578;DHT22;57623;53.608;10.004;2022-09-17T01:47:47;12.40;99.90
1578;DHT22;57623;53.608;10.004;2022-09-17T01:51:05;12.40;99.90
1578;DHT22;57623;53.608;10.004;2022-09-17T01:54:15;12.40;99.90
1578;DHT22;57623;53.608;10.004;2022-09-17T01:57:27;12.40;99.90
1578;DHT22;57623;53.608;10.004;2022-09-17T02:00:31;12.40;99.90
1578;DHT22;57623;53.608;10.004;2022-09-17T02:03:38;12.50;99.90
1578;DHT22;57623;53.608;10.004;2022-09-17T02:07:01;12.40;99.90
1578;DHT22;57623;53.608;10.004;2022-09-17T02:10:21;12.50;99.90
1578;DHT22;57623;53.608;10.004;2022-09-17T02:13:37;12.40;99.90
1578;DHT22;57623;53.608;10.004;2022-09-17T02:17:18;12.40;99.90
1578;DHT22;57623;53.608;10.004;2022-09-17T02:20:42;12.40;99.90
1578;DHT22;57623;53.608;10.004;2022-09-17T02:23:50;12.40;99.90
1578;DHT22;57623;53.608;10.004;2022-09-17T02:26:57;12.40;99.90
1578;DHT22;57623;53.608;10.004;2022-09-17T02:29:58;12.40;99.90
1578;DHT22;57623;53.608;10.004;2022-09-17T02:33:31;12.40;99.90
1578;DHT22;57623;53.608;10.004;2022-09-17T02:36:54;12.40;99.90
1578;DHT22;57623;53.608;10.004;2022-09-17T02:39:58;12.50;99.90
1578;DHT22;57623;53.608;10.004;2022-09-17T02:43:27;12.40;99.90
1578;DHT22;57623;53.608;10.004;2022-09-17T02:46:43;12.40;99.90
1578;DHT22;57623;53.608;10.004;2022-09-17T02:50:04;12.30;99.90
1578;DHT22;57623;53.608;10.004;2022-09-17T02:53:44;12.30;99.90
1578;DHT22;57623;53.608;10.004;2022-09-17T02:56:49;12.30;99.90
1578;DHT22;57623;53.608;10.004;2022-09-17T03:00:05;12.30;99.90
1578;DHT22;57623;53.608;10.004;2022-09-17T03:03:13;12.40;99.90
1578;DHT22;57623;53.608;10.004;2022-09-17T03:06:09;12.40;99.90
1578;DHT22;57623;53.608;10.004;2022-09-17T03:09:32;12.40;99.90
1578;DHT22;57623;53.608;10.004;2022-09-17T03:12:34;12.30;99.90
1578;DHT22;57623;53.608;10.004;2022-09-17T03:15:38;12.30;99.90
1578;DHT22;57623;53.608;10.004;2022-09-17T03:18:41;12.30;99.90
1578;DHT22;57623;53.608;10.004;2022-09-17T03:21:56;12.30;99.90
1578;DHT22;57623;53.608;10.004;2022-09-17T03:24:53;12.30;99.90
1578;DHT22;57623;53.608;10.004;2022-09-17T03:27:57;12.30;99.90
1578;DHT22;57623;53.608;10.004;2022-09-17T03:30:59;12.30;99.90
1578;DHT22;57623;53.608;10.004;2022-09-17T03:34:04;12.20;99.90
1578;DHT22;57623;53.608;10.004;2022-09-17T03:37:01;12.30;99.90
1578;DHT22;57623;53.608;10.004;2022-09-17T03:40:30;12.30;99.90
1578;DHT22;57623;53.608;10.004;2022-09-17T03:43:46;12.30;99.90
1578;DHT22;57623;53.608;10.004;2022-09-17T03:47:02;12.30;99.90
1578;DHT22;57623;53.608;10.004;2022-09-17T03:50:13;12.30;99.90
1578;DHT22;57623;53.608;10.004;2022-09-17T03:53:13;12.30;99.90
1578;DHT22;57623;53.608;10.004;2022-09-17T03:56:19;12.30;99.90
1578;DHT22;57623;53.608;10.004;2022-09-17T03:59:11;12.30;99.90
1578;DHT22;57623;53.608;10.004;2022-09-17T04:02:23;12.30;99.90
1578;DHT22;57623;53.608;10.004;2022-09-17T04:05:26;12.20;99.90
1578;DHT22;57623;53.608;10.004;2022-09-17T04:08:38;12.20;99.90
1578;DHT22;57623;53.608;10.004;2022-09-17T04:11:44;12.20;99.90
1578;DHT22;57623;53.608;10.004;2022-09-17T04:15:06;12.20;99.90
1578;DHT22;57623;53.608;10.004;2022-09-17T04:18:12;12.20;99.90
1578;DHT22;57623;53.608;10.004;2022-09-17T04:21:13;12.10;99.90
1578;DHT22;57623;53.608;10.004;2022-09-17T04:24:21;12.20;99.90
1578;DHT22;57623;53.608;10.004;2022-09-17T04:27:21;12.10;99.90
1578;DHT22;57623;53.608;10.004;2022-09-17T04:30:33;12.10;99.90
1578;DHT22;57623;53.608;10.004;2022-09-17T04:33:43;12.10;99.90
1578;DHT22;57623;53.608;10.004;2022-09-17T04:36:46;12.10;99.90
1578;DHT22;57623;53.608;10.004;2022-09-17T04:39:56;12.00;99.90
1578;DHT22;57623;53.608;10.004;2022-09-17T04:43:16;11.90;99.90
1578;DHT22;57623;53.608;10.004;2022-09-17T04:46:25;11.90;99.90
1578;DHT22;57623;53.608;10.004;2022-09-17T04:49:23;11.90;99.90
1578;DHT22;57623;53.608;10.004;2022-09-17T04:52:22;11.90;99.90
1578;DHT22;57623;53.608;10.004;2022-09-17T04:55:23;11.90;99.90
1578;DHT22;57623;53.608;10.004;2022-09-17T04:58:36;11.90;99.90
1578;DHT22;57623;53.608;10.004;2022-09-17T05:01:59;11.90;99.90
1578;DHT22;57623;53.608;10.004;2022-09-17T05:05:11;12.00;99.90
1578;DHT22;57623;53.608;10.004;2022-09-17T05:08:18;11.90;99.90
1578;DHT22;57623;53.608;10.004;2022-09-17T05:11:19;11.90;99.90
1578;DHT22;57623;53.608;10.004;2022-09-17T05:14:30;11.90;99.90
1578;DHT22;57623;53.608;10.004;2022-09-17T05:17:38;11.90;99.90
1578;DHT22;57623;53.608;10.004;2022-09-17T05:20:28;11.90;99.90
1578;DHT22;57623;53.608;10.004;2022-09-17T05:23:30;11.90;99.90
1578;DHT22;57623;53.608;10.004;2022-09-17T05:26:30;11.80;99.90
1578;DHT22;57623;53.608;10.004;2022-09-17T05:30:06;11.80;99.90
1578;DHT22;57623;53.608;10.004;2022-09-17T05:33:08;11.80;99.90
1578;DHT22;57623;53.608;10.004;2022-09-17T05:36:09;11.80;99.90
1578;DHT22;57623;53.608;10.004;2022-09-17T05:40:00;11.80;99.90
1578;DHT22;57623;53.608;10.004;2022-09-17T05:42:55;11.90;99.90
1578;DHT22;57623;53.608;10.004;2022-09-17T05:46:13;11.80;99.90
1578;DHT22;57623;53.608;10.004;2022-09-17T05:49:17;11.90;99.90
1578;DHT22;57623;53.608;10.004;2022-09-17T05:55:48;11.80;99.90
1578;DHT22;57623;53.608;10.004;2022-09-17T05:58:58;11.90;99.90
1578;DHT22;57623;53.608;10.004;2022-09-17T06:02:08;11.90;99.90
1578;DHT22;57623;53.608;10.004;2022-09-17T06:05:04;11.90;99.90
1578;DHT22;57623;53.608;10.004;2022-09-17T06:07:54;11.90;99.90
1578;DHT22;57623;53.608;10.004;2022-09-17T06:10:49;12.00;99.90
1578;DHT22;57623;53.608;10.004;2022-09-17T06:13:41;11.90;99.90
1578;DHT22;57623;53.608;10.004;2022-09-17T06:16:30;11.90;99.90
1578;DHT22;57623;53.608;10.004;2022-09-17T06:19:30;12.00;99.90
1578;DHT22;57623;53.608;10.004;2022-09-17T06:22:22;12.00;99.90
1578;DHT22;57623;53.608;10.004;2022-09-17T06:25:24;12.00;99.90
1578;DHT22;57623;53.608;10.004;2022-09-17T06:28:19;12.00;99.90
1578;DHT22;57623;53.608;10.004;2022-09-17T06:31:11;12.00;99.90
1578;DHT22;57623;53.608;10.004;2022-09-17T06:34:05;12.00;99.90
1578;DHT22;57623;53.608;10.004;2022-09-17T06:36:57;12.00;99.90
1578;DHT22;57623;53.608;10.004;2022-09-17T06:40:03;12.00;99.90
1578;DHT22;57623;53.608;10.004;2022-09-17T06:42:59;12.00;99.90
1578;DHT22;57623;53.608;10.004;2022-09-17T06:45:51;12.00;99.90
1578;DHT22;57623;53.608;10.004;2022-09-17T06:48:41;11.80;99.90
1578;DHT22;57623;53.608;10.004;2022-09-17T06:51:39;11.80;99.90
1578;DHT22;57623;53.608;10.004;2022-09-17T06:54:31;11.80;99.90
1578;DHT22;57623;53.608;10.004;2022-09-17T06:57:34;11.80;99.90
1578;DHT22;57623;53.608;10.004;2022-09-17T07:00:37;11.80;99.90
1578;DHT22;57623;53.608;10.004;2022-09-17T07:03:35;11.80;99.90
1578;DHT22;57623;53.608;10.004;2022-09-17T07:06:27;11.90;99.90
1578;DHT22;57623;53.608;10.004;2022-09-17T07:09:22;11.90;99.90
1578;DHT22;57623;53.608;10.004;2022-09-17T07:12:13;11.90;99.90
1578;DHT22;57623;53.608;10.004;2022-09-17T07:15:03;11.90;99.90
1578;DHT22;57623;53.608;10.004;2022-09-17T07:17:55;11.90;99.90
1578;DHT22;57623;53.608;10.004;2022-09-17T07:20:51;12.00;99.90
1578;DHT22;57623;53.608;10.004;2022-09-17T07:23:52;12.10;99.90
1578;DHT22;57623;53.608;10.004;2022-09-17T07:26:43;12.10;99.90
1578;DHT22;57623;53.608;10.004;2022-09-17T07:29:34;12.10;99.90
1578;DHT22;57623;53.608;10.004;2022-09-17T07:32:26;12.20;99.90
1578;DHT22;57623;53.608;10.004;2022-09-17T07:35:31;12.20;99.90
1578;DHT22;57623;53.608;10.004;2022-09-17T07:38:19;12.40;99.90
1578;DHT22;57623;53.608;10.004;2022-09-17T07:41:10;12.40;99.90
1578;DHT22;57623;53.608;10.004;2022-09-17T07:44:04;12.40;99.90
1578;DHT22;57623;53.608;10.004;2022-09-17T07:46:55;12.50;99.90
1578;DHT22;57623;53.608;10.004;2022-09-17T07:49:45;12.50;99.90
1578;DHT22;57623;53.608;10.004;2022-09-17T07:52:34;12.40;99.90
1578;DHT22;57623;53.608;10.004;2022-09-17T07:55:24;12.50;99.90
1578;DHT22;57623;53.608;10.004;2022-09-17T07:58:18;12.50;99.90
1578;DHT22;57623;53.608;10.004;2022-09-17T08:01:07;12.50;99.90
1578;DHT22;57623;53.608;10.004;2022-09-17T08:03:57;12.70;99.90
1578;DHT22;57623;53.608;10.004;2022-09-17T08:06:46;12.70;99.90
1578;DHT22;57623;53.608;10.004;2022-09-17T08:09:34;12.80;99.90
1578;DHT22;57623;53.608;10.004;2022-09-17T08:12:26;12.80;99.90
1578;DHT22;57623;53.608;10.004;2022-09-17T08:15:15;12.90;99.90
1578;DHT22;57623;53.608;10.004;2022-09-17T08:18:03;12.90;99.90
1578;DHT22;57623;53.608;10.004;2022-09-17T08:20:55;13.00;99.90
1578;DHT22;57623;53.608;10.004;2022-09-17T08:23:44;13.00;99.90
1578;DHT22;57623;53.608;10.004;2022-09-17T08:26:32;13.10;99.90
1578;DHT22;57623;53.608;10.004;2022-09-17T08:29:21;13.10;99.90
1578;DHT22;57623;53.608;10.004;2022-09-17T08:32:12;13.20;99.90
1578;DHT22;57623;53.608;10.004;2022-09-17T08:35:00;13.20;99.90
1578;DHT22;57623;53.608;10.004;2022-09-17T08:37:54;13.20;99.90
1578;DHT22;57623;53.608;10.004;2022-09-17T08:40:51;13.20;99.90
1578;DHT22;57623;53.608;10.004;2022-09-17T08:43:47;13.20;99.90
1578;DHT22;57623;53.608;10.004;2022-09-17T08:46:41;13.30;99.90
1578;DHT22;57623;53.608;10.004;2022-09-17T08:49:34;13.30;99.90
1578;DHT22;57623;53.608;10.004;2022-09-17T08:52:42;13.30;99.90
1578;DHT22;57623;53.608;10.004;2022-09-17T08:55:41;13.30;99.90
1578;DHT22;57623;53.608;10.004;2022-09-17T08:58:50;13.30;99.90
1578;DHT22;57623;53.608;10.004;2022-09-17T09:01:49;13.40;99.90
1578;DHT22;57623;53.608;10.004;2022-09-17T09:04:59;13.40;99.90
1578;DHT22;57623;53.608;10.004;2022-09-17T09:07:51;13.40;99.90
1578;DHT22;57623;53.608;10.004;2022-09-17T09:10:48;13.50;99.90
1578;DHT22;57623;53.608;10.004;2022-09-17T09:13:45;13.60;99.90
1578;DHT22;57623;53.608;10.004;2022-09-17T09:16:43;13.70;99.90
1578;DHT22;57623;53.608;10.004;2022-09-17T09:19:39;13.70;99.90
1578;DHT22;57623;53.608;10.004;2022-09-17T09:22:38;13.70;99.90
1578;DHT22;57623;53.608;10.004;2022-09-17T09:25:33;13.80;99.90
1578;DHT22;57623;53.608;10.004;2022-09-17T09:28:41;13.80;99.90
1578;DHT22;57623;53.608;10.004;2022-09-17T09:31:55;13.70;99.90
1578;DHT22;57623;53.608;10.004;2022-09-17T09:34:46;13.70;99.90
1578;DHT22;57623;53.608;10.004;2022-09-17T09:37:39;13.70;99.90
1578;DHT22;57623;53.608;10.004;2022-09-17T09:40:36;13.70;99.90
1578;DHT22;57623;53.608;10.004;2022-09-17T09:43:37;13.70;99.90
1578;DHT22;57623;53.608;10.004;2022-09-17T09:46:54;13.60;99.90
1578;DHT22;57623;53.608;10.004;2022-09-17T09:49:58;13.70;99.90
1578;DHT22;57623;53.608;10.004;2022-09-17T09:53:00;13.70;99.90
1578;DHT22;57623;53.608;10.004;2022-09-17T09:56:00;13.70;99.90
1578;DHT22;57623;53.608;10.004;2022-09-17T09:58:51;13.80;99.90
1578;DHT22;57623;53.608;10.004;2022-09-17T10:01:43;13.90;99.90
1578;DHT22;57623;53.608;10.004;2022-09-17T10:04:32;13.80;99.90
1578;DHT22;57623;53.608;10.004;2022-09-17T10:07:20;13.80;99.90
1578;DHT22;57623;53.608;10.004;2022-09-17T10:10:09;13.80;99.90
1578;DHT22;57623;53.608;10.004;2022-09-17T10:13:05;13.90;99.90
1578;DHT22;57623;53.608;10.004;2022-09-17T10:15:54;14.00;99.90
1578;DHT22;57623;53.608;10.004;2022-09-17T10:18:44;14.10;99.90
1578;DHT22;57623;53.608;10.004;2022-09-17T10:21:34;14.20;99.90
1578;DHT22;57623;53.608;10.004;2022-09-17T10:24:24;14.20;99.90
1578;DHT22;57623;53.608;10.004;2022-09-17T10:27:16;14.10;99.90
1578;DHT22;57623;53.608;10.004;2022-09-17T10:30:14;14.10;99.90
1578;DHT22;57623;53.608;10.004;2022-09-17T10:33:15;14.10;99.90
1578;DHT22;57623;53.608;10.004;2022-09-17T10:36:05;14.00;99.90
1578;DHT22;57623;53.608;10.004;2022-09-17T10:38:55;13.90;99.90
1578;DHT22;57623;53.608;10.004;2022-09-17T10:41:52;13.90;99.90
1578;DHT22;57623;53.608;10.004;2022-09-17T10:44:50;14.00;99.90
1578;DHT22;57623;53.608;10.004;2022-09-17T10:47:41;14.10;99.90
1578;DHT22;57623;53.608;10.004;2022-09-17T10:50:32;14.10;99.90
1578;DHT22;57623;53.608;10.004;2022-09-17T10:53:25;14.00;99.90
1578;DHT22;57623;53.608;10.004;2022-09-17T10:56:18;14.00;99.90
1578;DHT22;57623;53.608;10.004;2022-09-17T10:59:36;14.00;99.90
1578;DHT22;57623;53.608;10.004;2022-09-17T11:06:23;13.90;99.90
1578;DHT22;57623;53.608;10.004;2022-09-17T11:09:25;14.00;99.90
1578;DHT22;57623;53.608;10.004;2022-09-17T11:12:33;14.20;99.90
1578;DHT22;57623;53.608;10.004;2022-09-17T11:15:32;14.30;99.90
1578;DHT22;57623;53.608;10.004;2022-09-17T11:18:40;14.30;99.90
1578;DHT22;57623;53.608;10.004;2022-09-17T11:21:40;14.30;99.90
1578;DHT22;57623;53.608;10.004;2022-09-17T11:24:50;14.20;99.90
1578;DHT22;57623;53.608;10.004;2022-09-17T11:27:59;14.30;99.90
1578;DHT22;57623;53.608;10.004;2022-09-17T11:30:59;14.40;99.90
1578;DHT22;57623;53.608;10.004;2022-09-17T11:34:08;14.40;99.90
1578;DHT22;57623;53.608;10.004;2022-09-17T11:37:04;14.50;99.90
1578;DHT22;57623;53.608;10.004;2022-09-17T11:39:59;14.50;99.90
1578;DHT22;57623;53.608;10.004;2022-09-17T11:42:50;14.70;99.90
1578;DHT22;57623;53.608;10.004;2022-09-17T11:45:47;14.90;99.90
1578;DHT22;57623;53.608;10.004;2022-09-17T11:48:43;15.10;99.90
1578;DHT22;57623;53.608;10.004;2022-09-17T11:51:35;15.30;99.90
1578;DHT22;57623;53.608;10.004;2022-09-17T11:54:29;15.30;99.90
1578;DHT22;57623;53.608;10.004;2022-09-17T11:57:20;15.40;99.90
1578;DHT22;57623;53.608;10.004;2022-09-17T12:00:14;15.50;99.90
1578;DHT22;57623;53.608;10.004;2022-09-17T12:03:07;15.70;99.90
1578;DHT22;57623;53.608;10.004;2022-09-17T12:06:02;15.70;99.90
1578;DHT22;57623;53.608;10.004;2022-09-17T12:08:55;15.60;99.90
1578;DHT22;57623;53.608;10.004;2022-09-17T12:11:50;15.70;99.90
1578;DHT22;57623;53.608;10.004;2022-09-17T12:14:45;15.70;99.90
1578;DHT22;57623;53.608;10.004;2022-09-17T12:17:39;15.70;99.90
1578;DHT22;57623;53.608;10.004;2022-09-17T12:20:31;15.80;99.90
1578;DHT22;57623;53.608;10.004;2022-09-17T12:23:30;16.00;99.90
1578;DHT22;57623;53.608;10.004;2022-09-17T12:26:29;16.10;99.90
1578;DHT22;57623;53.608;10.004;2022-09-17T12:29:32;16.30;99.90
1578;DHT22;57623;53.608;10.004;2022-09-17T12:35:51;16.50;99.90
1578;DHT22;57623;53.608;10.004;2022-09-17T12:39:17;16.70;99.90
1578;DHT22;57623;53.608;10.004;2022-09-17T12:42:24;16.90;99.90
1578;DHT22;57623;53.608;10.004;2022-09-17T12:45:31;17.00;99.90
1578;DHT22;57623;53.608;10.004;2022-09-17T12:48:48;17.20;99.90
1578;DHT22;57623;53.608;10.004;2022-09-17T12:51:51;17.60;99.90
1578;DHT22;57623;53.608;10.004;2022-09-17T12:54:53;17.80;99.90
1578;DHT22;57623;53.608;10.004;2022-09-17T12:57:54;18.30;99.90
1578;DHT22;57623;53.608;10.004;2022-09-17T13:00:53;19.00;99.90
1578;DHT22;57623;53.608;10.004;2022-09-17T13:03:45;19.70;99.90
1578;DHT22;57623;53.608;10.004;2022-09-17T13:07:09;19.80;99.90
1578;DHT22;57623;53.608;10.004;2022-09-17T13:10:11;19.60;99.90
1578;DHT22;57623;53.608;10.004;2022-09-17T13:13:24;19.30;99.90
1578;DHT22;57623;53.608;10.004;2022-09-17T13:16:20;19.10;99.90
1578;DHT22;57623;53.608;10.004;2022-09-17T13:19:22;18.80;99.90
1578;DHT22;57623;53.608;10.004;2022-09-17T13:22:20;18.50;99.90
1578;DHT22;57623;53.608;10.004;2022-09-17T13:25:11;18.30;99.90
1578;DHT22;57623;53.608;10.004;2022-09-17T13:28:05;18.10;99.90
1578;DHT22;57623;53.608;10.004;2022-09-17T13:30:56;17.90;99.90
1578;DHT22;57623;53.608;10.004;2022-09-17T13:33:54;17.60;99.90
1578;DHT22;57623;53.608;10.004;2022-09-17T13:36:46;17.40;99.90
1578;DHT22;57623;53.608;10.004;2022-09-17T13:39:41;17.40;99.90
1578;DHT22;57623;53.608;10.004;2022-09-17T13:42:40;17.90;99.90
1578;DHT22;57623;53.608;10.004;2022-09-17T13:45:30;18.50;99.90
1578;DHT22;57623;53.608;10.004;2022-09-17T13:48:22;19.20;99.90
1578;DHT22;57623;53.608;10.004;2022-09-17T13:51:49;19.50;99.90
1578;DHT22;57623;53.608;10.004;2022-09-17T13:54:38;19.90;99.90
1578;DHT22;57623;53.608;10.004;2022-09-17T13:57:30;20.00;99.90
1578;DHT22;57623;53.608;10.004;2022-09-17T14:00:48;19.80;99.90
1578;DHT22;57623;53.608;10.004;2022-09-17T14:03:57;19.40;99.90
1578;DHT22;57623;53.608;10.004;2022-09-17T14:06:50;18.90;99.90
1578;DHT22;57623;53.608;10.004;2022-09-17T14:09:51;18.50;99.90
1578;DHT22;57623;53.608;10.004;2022-09-17T14:12:54;18.10;99.90
1578;DHT22;57623;53.608;10.004;2022-09-17T14:19:43;17.30;99.90
1578;DHT22;57623;53.608;10.004;2022-09-17T14:22:39;17.00;99.90
1578;DHT22;57623;53.608;10.004;2022-09-17T14:25:32;16.90;99.90
1578;DHT22;57623;53.608;10.004;2022-09-17T14:28:30;16.70;99.90
1578;DHT22;57623;53.608;10.004;2022-09-17T14:31:26;16.70;99.90
1578;DHT22;57623;53.608;10.004;2022-09-17T14:34:22;16.60;99.90
1578;DHT22;57623;53.608;10.004;2022-09-17T14:37:13;16.60;99.90
1578;DHT22;57623;53.608;10.004;2022-09-17T14:40:13;16.60;99.90
1578;DHT22;57623;53.608;10.004;2022-09-17T14:43:04;16.30;99.90
1578;DHT22;57623;53.608;10.004;2022-09-17T14:45:52;16.10;99.90
1578;DHT22;57623;53.608;10.004;2022-09-17T14:48:41;16.00;99.90
1578;DHT22;57623;53.608;10.004;2022-09-17T14:51:30;15.80;99.90
1578;DHT22;57623;53.608;10.004;2022-09-17T14:54:21;15.70;99.90
1578;DHT22;57623;53.608;10.004;2022-09-17T14:57:23;15.50;99.90
1578;DHT22;57623;53.608;10.004;2022-09-17T15:00:21;15.40;99.90
1578;DHT22;57623;53.608;10.004;2022-09-17T15:03:19;15.40;99.90
1578;DHT22;57623;53.608;10.004;2022-09-17T15:06:19;15.30;99.90
1578;DHT22;57623;53.608;10.004;2022-09-17T15:09:14;15.20;99.90
1578;DHT22;57623;53.608;10.004;2022-09-17T15:12:06;15.20;99.90
1578;DHT22;57623;53.608;10.004;2022-09-17T15:14:56;15.10;99.90
1578;DHT22;57623;53.608;10.004;2022-09-17T15:17:45;15.10;99.90
1578;DHT22;57623;53.608;10.004;2022-09-17T15:20:34;15.10;99.90
1578;DHT22;57623;53.608;10.004;2022-09-17T15:23:24;15.10;99.90
1578;DHT22;57623;53.608;10.004;2022-09-17T15:26:16;15.00;99.90
1578;DHT22;57623;53.608;10.004;2022-09-17T15:29:10;15.10;99.90
1578;DHT22;57623;53.608;10.004;2022-09-17T15:32:03;15.00;99.90
1578;DHT22;57623;53.608;10.004;2022-09-17T15:35:21;15.00;99.90
1578;DHT22;57623;53.608;10.004;2022-09-17T15:38:20;15.00;99.90
1578;DHT22;57623;53.608;10.004;2022-09-17T15:41:27;15.00;99.90
1578;DHT22;57623;53.608;10.004;2022-09-17T15:44:20;15.00;99.90
1578;DHT22;57623;53.608;10.004;2022-09-17T15:50:49;15.00;99.90
1578;DHT22;57623;53.608;10.004;2022-09-17T15:53:38;15.00;99.90
1578;DHT22;57623;53.608;10.004;2022-09-17T15:56:39;14.90;99.90
1578;DHT22;57623;53.608;10.004;2022-09-17T15:59:29;14.90;99.90
1578;DHT22;57623;53.608;10.004;2022-09-17T16:02:26;14.90;99.90
1578;DHT22;57623;53.608;10.004;2022-09-17T16:05:46;14.90;99.90
1578;DHT22;57623;53.608;10.004;2022-09-17T16:08:38;14.90;99.90
1578;DHT22;57623;53.608;10.004;2022-09-17T16:11:30;14.90;99.90
1578;DHT22;57623;53.608;10.004;2022-09-17T16:14:18;14.80;99.90
1578;DHT22;57623;53.608;10.004;2022-09-17T16:17:43;14.80;99.90
1578;DHT22;57623;53.608;10.004;2022-09-17T16:20:32;14.90;99.90
1578;DHT22;57623;53.608;10.004;2022-09-17T16:23:21;14.80;99.90
1578;DHT22;57623;53.608;10.004;2022-09-17T16:26:14;14.80;99.90
1578;DHT22;57623;53.608;10.004;2022-09-17T16:29:06;14.70;99.90
1578;DHT22;57623;53.608;10.004;2022-09-17T16:31:57;14.60;99.90
1578;DHT22;57623;53.608;10.004;2022-09-17T16:34:45;14.60;99.90
1578;DHT22;57623;53.608;10.004;2022-09-17T16:37:33;14.60;99.90
1578;DHT22;57623;53.608;10.004;2022-09-17T16:40:26;14.60;99.90
1578;DHT22;57623;53.608;10.004;2022-09-17T16:43:15;14.50;99.90
1578;DHT22;57623;53.608;10.004;2022-09-17T16:46:05;14.40;99.90
1578;DHT22;57623;53.608;10.004;2022-09-17T16:48:53;14.40;99.90
1578;DHT22;57623;53.608;10.004;2022-09-17T16:51:44;14.30;99.90
1578;DHT22;57623;53.608;10.004;2022-09-17T16:54:32;14.30;99.90
1578;DHT22;57623;53.608;10.004;2022-09-17T16:57:21;14.30;99.90
1578;DHT22;57623;53.608;10.004;2022-09-17T17:00:11;14.30;99.90
1578;DHT22;57623;53.608;10.004;2022-09-17T17:03:00;14.20;99.90
1578;DHT22;57623;53.608;10.004;2022-09-17T17:05:49;14.20;99.90
1578;DHT22;57623;53.608;10.004;2022-09-17T17:08:37;14.20;99.90
1578;DHT22;57623;53.608;10.004;2022-09-17T17:11:25;14.20;99.90
1578;DHT22;57623;53.608;10.004;2022-09-17T17:14:16;14.10;99.90
1578;DHT22;57623;53.608;10.004;2022-09-17T17:17:05;14.10;99.90
1578;DHT22;57623;53.608;10.004;2022-09-17T17:19:53;14.10;99.90
1578;DHT22;57623;53.608;10.004;2022-09-17T17:22:42;14.10;99.90
1578;DHT22;57623;53.608;10.004;2022-09-17T17:25:30;14.00;99.90
1578;DHT22;57623;53.608;10.004;2022-09-17T17:28:19;14.00;99.90
1578;DHT22;57623;53.608;10.004;2022-09-17T17:31:08;14.00;99.90
1578;DHT22;57623;53.608;10.004;2022-09-17T17:33:57;13.90;99.90
1578;DHT22;57623;53.608;10.004;2022-09-17T17:36:47;13.90;99.90
1578;DHT22;57623;53.608;10.004;2022-09-17T17:39:35;13.90;99.90
1578;DHT22;57623;53.608;10.004;2022-09-17T17:42:23;13.80;99.90
1578;DHT22;57623;53.608;10.004;2022-09-17T17:45:12;13.70;99.90
1578;DHT22;57623;53.608;10.004;2022-09-17T17:48:02;13.70;99.90
1578;DHT22;57623;53.608;10.004;2022-09-17T17:50:51;13.70;99.90
1578;DHT22;57623;53.608;10.004;2022-09-17T17:53:42;13.60;99.90
1578;DHT22;57623;53.608;10.004;2022-09-17T17:56:31;13.60;99.90
1578;DHT22;57623;53.608;10.004;2022-09-17T17:59:21;13.50;99.90
1578;DHT22;57623;53.608;10.004;2022-09-17T18:02:09;13.50;99.90
1578;DHT22;57623;53.608;10.004;2022-09-17T18:04:59;13.50;99.90
1578;DHT22;57623;53.608;10.004;2022-09-17T18:07:50;13.50;99.90
1578;DHT22;57623;53.608;10.004;2022-09-17T18:10:38;13.40;99.90
1578;DHT22;57623;53.608;10.004;2022-09-17T18:13:26;13.40;99.90
1578;DHT22;57623;53.608;10.004;2022-09-17T18:16:15;13.40;99.90
1578;DHT22;57623;53.608;10.004;2022-09-17T18:19:03;13.30;99.90
1578;DHT22;57623;53.608;10.004;2022-09-17T18:21:54;13.30;99.90
1578;DHT22;57623;53.608;10.004;2022-09-17T18:24:44;13.30;99.90
1578;DHT22;57623;53.608;10.004;2022-09-17T18:27:32;13.20;99.90
1578;DHT22;57623;53.608;10.004;2022-09-17T18:30:20;13.20;99.90
1578;DHT22;57623;53.608;10.004;2022-09-17T18:33:09;13.20;99.90
1578;DHT22;57623;53.608;10.004;2022-09-17T18:36:00;13.20;99.90
1578;DHT22;57623;53.608;10.004;2022-09-17T18:38:53;13.20;99.90
1578;DHT22;57623;53.608;10.004;2022-09-17T18:41:56;13.20;99.90
1578;DHT22;57623;53.608;10.004;2022-09-17T18:44:45;13.20;99.90
1578;DHT22;57623;53.608;10.004;2022-09-17T18:47:33;13.20;99.90
1578;DHT22;57623;53.608;10.004;2022-09-17T18:50:21;13.20;99.90
1578;DHT22;57623;53.608;10.004;2022-09-17T18:53:09;13.20;99.90
1578;DHT22;57623;53.608;10.004;2022-09-17T18:56:02;13.20;99.90
1578;DHT22;57623;53.608;10.004;2022-09-17T18:58:52;13.20;99.90
1578;DHT22;57623;53.608;10.004;2022-09-17T19:01:41;13.10;99.90
1578;DHT22;57623;53.608;10.004;2022-09-17T19:04:29;13.10;99.90
1578;DHT22;57623;53.608;10.004;2022-09-17T19:07:17;13.10;99.90
1578;DHT22;57623;53.608;10.004;2022-09-17T19:10:06;13.10;99.90
1578;DHT22;57623;53.608;10.004;2022-09-17T19:12:56;13.10;99.90
1578;DHT22;57623;53.608;10.004;2022-09-17T19:15:44;13.00;99.90
1578;DHT22;57623;53.608;10.004;2022-09-17T19:18:33;13.00;99.90
1578;DHT22;57623;53.608;10.004;2022-09-17T19:21:22;13.00;99.90
1578;DHT22;57623;53.608;10.004;2022-09-17T19:24:11;13.00;99.90
1578;DHT22;57623;53.608;10.004;2022-09-17T19:26:59;12.90;99.90
1578;DHT22;57623;53.608;10.004;2022-09-17T19:29:53;12.90;99.90
1578;DHT22;57623;53.608;10.004;2022-09-17T19:32:46;12.90;99.90